createdAt,value
2023-06-19T00:01:12.220Z,99797.46
2023-06-19T00:03:39.845Z,99801.17
2023-06-19T00:06:07.090Z,99796.29
2023-06-19T00:08:35.538Z,99795.84
2023-06-19T00:11:02.377Z,99798.55
2023-06-19T00:13:30.033Z,99799.23
2023-06-19T00:16:01.526Z,99800.05
2023-06-19T00:18:29.896Z,99800.62
2023-06-19T00:22:53.021Z,99797.32
2023-06-19T00:25:21.389Z,99802.83
2023-06-19T00:27:49.124Z,99798.80
2023-06-19T00:30:16.506Z,99802.27
2023-06-19T00:32:51.279Z,99799.52
2023-06-19T00:35:19.467Z,99800.89
2023-06-19T00:37:48.302Z,99796.86
2023-06-19T00:40:30.158Z,99794.94
2023-06-19T00:42:57.341Z,99788.84
2023-06-19T00:45:27.864Z,99784.29
2023-06-19T00:47:55.967Z,99783.69
2023-06-19T00:50:23.717Z,99783.55
2023-06-19T00:52:51.079Z,99785.15
2023-06-19T00:55:18.464Z,99786.29
2023-06-19T00:57:45.750Z,99782.00
2023-06-19T01:00:13.921Z,99782.60
2023-06-19T01:02:41.482Z,99781.13
2023-06-19T01:05:09.113Z,99780.60
2023-06-19T01:08:05.777Z,99783.50
2023-06-19T01:10:48.832Z,99779.88
2023-06-19T01:13:30.105Z,99779.27
2023-06-19T01:15:57.406Z,99779.02
2023-06-19T01:18:24.645Z,99780.25
2023-06-19T01:20:51.688Z,99782.14
2023-06-19T01:23:18.841Z,99780.68
2023-06-19T01:25:46.721Z,99783.30
2023-06-19T01:28:13.952Z,99784.56
2023-06-19T01:30:42.428Z,99789.80
2023-06-19T01:33:16.894Z,99786.00
2023-06-19T01:35:44.390Z,99790.41
2023-06-19T01:38:11.981Z,99792.08
2023-06-19T01:40:39.641Z,99794.34
2023-06-19T01:43:06.861Z,99789.98
2023-06-19T01:45:34.665Z,99795.81
2023-06-19T01:48:02.164Z,99796.19
2023-06-19T01:50:29.683Z,99797.81
2023-06-19T01:52:56.952Z,99798.39
2023-06-19T01:55:24.350Z,99797.43
2023-06-19T01:57:51.508Z,99796.77
2023-06-19T02:00:20.644Z,99801.88
2023-06-19T02:02:48.538Z,99797.30
2023-06-19T02:12:23.009Z,99793.65
2023-06-19T02:14:50.279Z,99799.27
2023-06-19T02:17:17.349Z,99802.81
2023-06-19T02:19:44.734Z,99801.54
2023-06-19T02:22:12.448Z,99806.39
2023-06-19T02:24:40.810Z,99803.69
2023-06-19T02:27:08.179Z,99804.69
2023-06-19T02:29:35.249Z,99811.30
2023-06-19T02:32:03.945Z,99805.66
2023-06-19T02:34:31.318Z,99806.48
2023-06-19T02:36:58.695Z,99807.21
2023-06-19T02:39:25.972Z,99800.96
2023-06-19T02:41:53.454Z,99806.80
2023-06-19T02:44:20.368Z,99805.96
2023-06-19T02:46:48.623Z,99804.70
2023-06-19T02:49:16.626Z,99805.89
2023-06-19T02:51:43.784Z,99808.39
2023-06-19T02:54:10.789Z,99807.77
2023-06-19T02:56:38.934Z,99812.66
2023-06-19T02:59:05.996Z,99813.88
2023-06-19T03:01:33.484Z,99810.05
2023-06-19T03:04:01.278Z,99810.80
2023-06-19T03:06:29.267Z,99806.81
2023-06-19T03:08:57.947Z,99807.24
2023-06-19T03:11:25.332Z,99808.95
2023-06-19T03:13:53.723Z,99807.20
2023-06-19T03:16:21.269Z,99808.23
2023-06-19T03:18:52.902Z,99808.83
2023-06-19T03:21:23.254Z,99809.04
2023-06-19T03:23:51.499Z,99814.17
2023-06-19T03:26:21.208Z,99812.13
2023-06-19T03:28:48.977Z,99811.63
2023-06-19T03:31:16.763Z,99812.55
2023-06-19T03:33:44.672Z,99810.20
2023-06-19T03:36:12.025Z,99808.79
2023-06-19T03:38:52.831Z,99813.75
2023-06-19T03:41:22.156Z,99812.41
2023-06-19T03:43:49.486Z,99815.88
2023-06-19T03:46:17.002Z,99815.08
2023-06-19T03:48:44.282Z,99818.27
2023-06-19T03:51:12.802Z,99812.27
2023-06-19T03:53:39.993Z,99816.42
2023-06-19T03:56:07.876Z,99818.09
2023-06-19T03:58:34.833Z,99821.70
2023-06-19T04:01:02.982Z,99821.98
2023-06-19T04:03:31.074Z,99827.16
2023-06-19T04:05:58.253Z,99832.89
2023-06-19T04:08:26.793Z,99834.17
2023-06-19T04:10:54.140Z,99830.89
2023-06-19T04:13:22.361Z,99832.28
2023-06-19T04:15:51.270Z,99834.00
2023-06-19T04:18:19.522Z,99834.80
2023-06-19T04:20:46.741Z,99843.17
2023-06-19T04:23:14.196Z,99842.83
2023-06-19T04:25:41.424Z,99844.81
2023-06-19T04:28:08.465Z,99846.73
2023-06-19T04:30:35.659Z,99853.54
2023-06-19T04:33:02.691Z,99854.14
2023-06-19T04:35:29.977Z,99857.34
2023-06-19T04:37:56.946Z,99860.71
2023-06-19T04:40:24.837Z,99857.11
2023-06-19T04:42:57.319Z,99859.72
2023-06-19T04:45:24.586Z,99865.11
2023-06-19T04:47:53.848Z,99865.33
2023-06-19T04:50:22.771Z,99866.56
2023-06-19T04:52:52.474Z,99867.41
2023-06-19T04:55:20.776Z,99866.92
2023-06-19T04:57:48.256Z,99869.90
2023-06-19T05:00:16.621Z,99870.41
2023-06-19T05:02:47.122Z,99876.98
2023-06-19T05:05:14.823Z,99876.81
2023-06-19T05:07:42.073Z,99882.29
2023-06-19T05:10:10.118Z,99884.20
2023-06-19T05:12:37.585Z,99884.28
2023-06-19T05:15:05.596Z,99887.11
2023-06-19T05:17:33.499Z,99889.95
2023-06-19T05:20:00.857Z,99887.08
2023-06-19T05:22:28.577Z,99885.30
2023-06-19T05:24:55.801Z,99889.10
2023-06-19T05:27:23.061Z,99886.27
2023-06-19T05:29:50.183Z,99886.27
2023-06-19T05:32:18.651Z,99889.55
2023-06-19T05:34:46.109Z,99891.65
2023-06-19T05:37:13.276Z,99890.09
2023-06-19T05:39:40.881Z,99890.14
2023-06-19T05:42:08.480Z,99893.73
2023-06-19T05:44:36.805Z,99893.23
2023-06-19T05:47:04.564Z,99896.08
2023-06-19T05:49:31.715Z,99894.86
2023-06-19T05:52:02.340Z,99892.05
2023-06-19T05:54:29.674Z,99886.91
2023-06-19T05:56:56.984Z,99886.00
2023-06-19T05:59:24.154Z,99887.04
2023-06-19T06:01:51.897Z,99887.73
2023-06-19T06:04:19.822Z,99885.55
2023-06-19T06:06:46.868Z,99887.50
2023-06-19T06:09:14.499Z,99885.45
2023-06-19T06:11:41.685Z,99883.08
2023-06-19T06:14:09.843Z,99877.84
2023-06-19T06:16:38.562Z,99884.39
2023-06-19T06:19:05.677Z,99885.63
2023-06-19T06:21:33.301Z,99879.16
2023-06-19T06:24:00.428Z,99872.64
2023-06-19T06:26:29.279Z,99872.21
2023-06-19T06:28:56.708Z,99873.90
2023-06-19T06:31:24.832Z,99870.69
2023-06-19T06:33:51.969Z,99873.14
2023-06-19T06:36:33.587Z,99872.02
2023-06-19T06:39:02.832Z,99878.67
2023-06-19T06:41:30.066Z,99875.83
2023-06-19T06:43:57.264Z,99879.04
2023-06-19T06:46:24.593Z,99882.90
2023-06-19T06:48:52.038Z,99875.88
2023-06-19T06:51:19.178Z,99880.69
2023-06-19T06:53:46.362Z,99888.30
2023-06-19T06:56:13.429Z,99886.80
2023-06-19T06:58:40.980Z,99884.92
2023-06-19T07:01:08.427Z,99883.11
2023-06-19T07:03:36.300Z,99882.67
2023-06-19T07:06:04.183Z,99876.65
2023-06-19T07:08:31.502Z,99884.59
2023-06-19T07:11:00.281Z,99884.88
2023-06-19T07:13:28.173Z,99886.81
2023-06-19T07:15:55.386Z,99886.79
2023-06-19T07:18:23.152Z,99886.02
2023-06-19T07:20:50.231Z,99885.80
2023-06-19T07:23:17.478Z,99889.30
2023-06-19T07:25:44.608Z,99885.95
2023-06-19T07:28:11.955Z,99889.55
2023-06-19T07:30:40.045Z,99890.73
2023-06-19T07:33:07.495Z,99890.89
2023-06-19T07:35:35.586Z,99887.42
2023-06-19T07:38:02.825Z,99881.27
2023-06-19T07:40:30.647Z,99890.70
2023-06-19T07:42:58.074Z,99885.46
2023-06-19T07:45:25.503Z,99884.92
2023-06-19T07:47:57.213Z,99889.89
2023-06-19T07:50:27.288Z,99886.16
2023-06-19T07:52:55.217Z,99891.39
2023-06-19T07:55:22.509Z,99883.83
2023-06-19T07:57:49.627Z,99885.08
2023-06-19T08:00:18.116Z,99880.08
2023-06-19T08:02:45.535Z,99877.88
2023-06-19T08:05:13.030Z,99883.12
2023-06-19T08:07:40.392Z,99883.70
2023-06-19T08:10:14.172Z,99882.79
2023-06-19T08:12:43.580Z,99878.30
2023-06-19T08:15:12.854Z,99878.59
2023-06-19T08:17:40.175Z,99874.47
2023-06-19T08:20:08.445Z,99875.87
2023-06-19T08:22:36.449Z,99875.80
2023-06-19T08:25:05.581Z,99873.09
2023-06-19T08:27:32.850Z,99873.30
2023-06-19T08:30:00.268Z,99867.52
2023-06-19T08:32:28.261Z,99870.16
2023-06-19T08:34:55.672Z,99869.27
2023-06-19T08:37:22.864Z,99875.50
2023-06-19T08:39:50.050Z,99878.42
2023-06-19T08:42:17.383Z,99876.48
2023-06-19T08:44:44.448Z,99875.97
2023-06-19T08:47:11.738Z,99876.23
2023-06-19T08:49:39.024Z,99874.14
2023-06-19T08:52:06.789Z,99872.96
2023-06-19T08:54:34.859Z,99872.36
2023-06-19T08:57:02.944Z,99871.90
2023-06-19T08:59:32.572Z,99873.12
2023-06-19T09:01:59.692Z,99867.26
2023-06-19T09:04:32.438Z,99865.38
2023-06-19T09:07:05.617Z,99862.09
2023-06-19T09:09:47.012Z,99862.33
2023-06-19T09:19:57.441Z,99856.39
2023-06-19T09:22:26.653Z,99852.95
2023-06-19T09:24:53.706Z,99848.31
2023-06-19T09:27:21.543Z,99851.63
2023-06-19T09:29:50.786Z,99845.92
2023-06-19T09:32:22.511Z,99843.06
2023-06-19T09:34:52.451Z,99843.05
2023-06-19T09:37:27.164Z,99843.06
2023-06-19T09:39:55.851Z,99842.06
2023-06-19T09:42:31.844Z,99848.05
2023-06-19T09:45:06.495Z,99835.20
2023-06-19T09:47:39.386Z,99842.12
2023-06-19T09:50:10.475Z,99836.27
2023-06-19T09:52:37.849Z,99839.73
2023-06-19T09:55:07.778Z,99837.07
2023-06-19T09:57:35.278Z,99840.33
2023-06-19T10:00:11.149Z,99839.27
2023-06-19T10:02:43.941Z,99836.48
2023-06-19T10:05:14.943Z,99838.98
2023-06-19T10:07:44.426Z,99840.60
2023-06-19T10:10:14.207Z,99838.99
2023-06-19T10:12:45.832Z,99834.45
2023-06-19T10:15:20.207Z,99832.88
2023-06-19T10:17:48.452Z,99839.08
2023-06-19T10:20:33.206Z,99831.55
2023-06-19T10:23:01.354Z,99830.44
2023-06-19T10:25:29.994Z,99820.77
2023-06-19T10:27:58.103Z,99821.38
2023-06-19T10:30:25.315Z,99824.29
2023-06-19T10:32:52.590Z,99820.73
2023-06-19T10:35:22.579Z,99819.92
2023-06-19T10:37:50.230Z,99815.17
2023-06-19T10:40:17.916Z,99814.30
2023-06-19T10:42:45.788Z,99813.41
2023-06-19T10:45:13.806Z,99814.48
2023-06-19T10:47:41.222Z,99811.05
2023-06-19T10:50:15.175Z,99807.42
2023-06-19T10:52:46.023Z,99804.48
2023-06-19T10:55:13.726Z,99799.96
2023-06-19T10:57:50.972Z,99800.36
2023-06-19T11:00:25.995Z,99797.64
2023-06-19T11:02:53.554Z,99801.05
2023-06-19T11:05:21.559Z,99795.92
2023-06-19T11:07:55.862Z,99794.97
2023-06-19T11:10:28.128Z,99800.48
2023-06-19T11:12:56.312Z,99792.50
2023-06-19T11:15:33.300Z,99792.73
2023-06-19T11:18:01.574Z,99795.63
2023-06-19T11:20:29.531Z,99795.49
2023-06-19T11:23:01.074Z,99798.78
2023-06-19T11:25:38.074Z,99786.83
2023-06-19T11:28:06.833Z,99780.42
2023-06-19T11:30:35.246Z,99780.98
2023-06-19T11:33:03.536Z,99784.78
2023-06-19T11:35:37.726Z,99784.78
2023-06-19T11:38:06.909Z,99785.70
2023-06-19T11:40:41.411Z,99785.52
2023-06-19T11:43:10.113Z,99779.56
2023-06-19T11:45:51.019Z,99781.69
2023-06-19T11:48:43.705Z,99775.41
2023-06-19T11:51:15.537Z,99779.56
2023-06-19T11:53:44.324Z,99780.96
2023-06-19T11:56:12.030Z,99782.94
2023-06-19T11:58:39.008Z,99777.66
2023-06-19T12:01:06.189Z,99772.45
2023-06-19T12:03:33.595Z,99772.94
2023-06-19T12:06:00.833Z,99768.92
2023-06-19T12:08:28.310Z,99765.97
2023-06-19T12:10:55.376Z,99762.30
2023-06-19T12:13:22.652Z,99766.44
2023-06-19T12:15:51.187Z,99764.95
2023-06-19T12:18:18.342Z,99762.38
2023-06-19T12:20:45.344Z,99763.04
2023-06-19T12:23:12.591Z,99751.58
2023-06-19T12:25:39.773Z,99746.86
2023-06-19T12:28:09.303Z,99746.00
2023-06-19T12:30:37.523Z,99748.12
2023-06-19T12:33:05.816Z,99747.00
2023-06-19T12:35:33.856Z,99744.42
2023-06-19T12:39:35.918Z,99741.89
2023-06-19T12:42:03.225Z,99744.41
2023-06-19T12:44:30.503Z,99743.30
2023-06-19T12:46:59.790Z,99733.64
2023-06-19T12:49:27.365Z,99732.93
2023-06-19T12:51:54.548Z,99728.11
2023-06-19T12:54:21.862Z,99721.58
2023-06-19T12:56:49.647Z,99727.07
2023-06-19T12:59:17.160Z,99721.21
2023-06-19T13:01:44.248Z,99722.55
2023-06-19T13:04:12.877Z,99714.50
2023-06-19T13:06:42.051Z,99706.86
2023-06-19T13:09:09.253Z,99710.04
2023-06-19T13:11:39.175Z,99706.46
2023-06-19T13:14:06.231Z,99706.91
2023-06-19T13:16:45.977Z,99705.83
2023-06-19T13:19:15.317Z,99699.85
2023-06-19T13:21:43.035Z,99698.92
2023-06-19T13:24:10.357Z,99696.20
2023-06-19T13:26:37.929Z,99697.59
2023-06-19T13:29:05.148Z,99693.88
2023-06-19T13:31:32.585Z,99691.95
2023-06-19T13:33:59.858Z,99687.56
2023-06-19T13:36:28.266Z,99682.14
2023-06-19T13:38:55.456Z,99686.63
2023-06-19T13:41:25.230Z,99682.23
2023-06-19T13:43:55.001Z,99683.79
2023-06-19T13:46:25.044Z,99680.42
2023-06-19T13:48:53.085Z,99678.77
2023-06-19T13:51:21.108Z,99677.85
2023-06-19T13:53:48.516Z,99677.49
2023-06-19T13:56:15.707Z,99676.19
2023-06-19T13:58:42.746Z,99668.52
2023-06-19T14:01:09.939Z,99669.61
2023-06-19T14:03:38.172Z,99667.24
2023-06-19T14:06:05.276Z,99665.95
2023-06-19T14:08:32.249Z,99669.16
2023-06-19T14:10:59.186Z,99665.11
2023-06-19T14:13:26.333Z,99665.73
2023-06-19T14:15:54.378Z,99665.30
2023-06-19T14:18:21.260Z,99663.53
2023-06-19T14:20:48.325Z,99660.98
2023-06-19T14:23:15.656Z,99665.91
2023-06-19T14:25:44.890Z,99662.23
2023-06-19T14:28:12.209Z,99656.13
2023-06-19T14:30:39.168Z,99659.66
2023-06-19T14:33:06.143Z,99657.81
2023-06-19T14:35:33.387Z,99661.23
2023-06-19T14:38:00.367Z,99661.67
2023-06-19T14:40:27.903Z,99661.65
2023-06-19T14:42:55.266Z,99662.45
2023-06-19T14:45:22.201Z,99659.33
2023-06-19T14:47:49.310Z,99664.38
2023-06-19T14:50:16.400Z,99660.91
2023-06-19T14:52:43.578Z,99658.59
2023-06-19T14:55:11.451Z,99659.98
2023-06-19T14:57:39.205Z,99666.65
2023-06-19T15:00:06.977Z,99667.30
2023-06-19T15:02:36.636Z,99674.14
2023-06-19T15:05:06.973Z,99668.88
2023-06-19T15:07:34.486Z,99669.05
2023-06-19T15:10:01.408Z,99668.54
2023-06-19T15:12:29.724Z,99665.45
2023-06-19T15:14:56.798Z,99669.83
2023-06-19T15:17:23.811Z,99667.59
2023-06-19T15:19:50.752Z,99665.05
2023-06-19T15:22:17.622Z,99664.61
2023-06-19T15:24:44.545Z,99662.08
2023-06-19T15:27:12.780Z,99663.63
2023-06-19T15:29:40.078Z,99663.55
2023-06-19T15:32:07.370Z,99662.89
2023-06-19T15:34:34.762Z,99662.88
2023-06-19T15:37:01.687Z,99664.91
2023-06-19T15:39:31.957Z,99661.55
2023-06-19T15:41:59.073Z,99660.23
2023-06-19T15:44:26.038Z,99663.81
2023-06-19T15:46:53.298Z,99669.58
2023-06-19T15:49:20.293Z,99676.45
2023-06-19T15:51:48.454Z,99676.17
2023-06-19T15:54:15.491Z,99680.47
2023-06-19T15:56:43.441Z,99686.20
2023-06-19T15:59:10.388Z,99686.98
2023-06-19T16:01:38.518Z,99689.63
2023-06-19T16:04:06.004Z,99692.14
2023-06-19T16:06:33.576Z,99691.73
2023-06-19T16:09:00.824Z,99698.48
2023-06-19T16:11:28.178Z,99708.02
2023-06-19T16:13:55.418Z,99709.82
2023-06-19T16:16:22.521Z,99720.38
2023-06-19T16:18:50.128Z,99716.30
2023-06-19T16:21:18.264Z,99718.68
2023-06-19T16:23:45.292Z,99721.67
2023-06-19T16:26:12.246Z,99717.52
2023-06-19T16:28:39.347Z,99716.66
2023-06-19T16:31:08.614Z,99719.52
2023-06-19T16:33:36.740Z,99722.02
2023-06-19T16:36:03.864Z,99722.80
2023-06-19T16:38:31.053Z,99721.64
2023-06-19T16:40:58.010Z,99716.92
2023-06-19T16:43:25.170Z,99717.73
2023-06-19T16:45:53.075Z,99717.21
2023-06-19T16:48:20.157Z,99713.23
2023-06-19T16:50:47.179Z,99717.86
2023-06-19T16:53:14.363Z,99713.54
2023-06-19T16:55:41.243Z,99715.64
2023-06-19T16:58:08.091Z,99723.06
2023-06-19T17:00:34.999Z,99726.54
2023-06-19T17:03:02.193Z,99727.98
2023-06-19T17:05:29.308Z,99726.41
2023-06-19T17:07:56.207Z,99729.98
2023-06-19T17:10:24.403Z,99727.31
2023-06-19T17:12:52.184Z,99722.08
2023-06-19T17:15:19.100Z,99725.22
2023-06-19T17:17:46.296Z,99725.60
2023-06-19T17:20:14.722Z,99726.40
2023-06-19T17:22:42.390Z,99728.19
2023-06-19T17:25:09.697Z,99730.27
2023-06-19T17:27:38.415Z,99730.69
2023-06-19T17:30:06.003Z,99727.37
2023-06-19T17:32:34.713Z,99727.68
2023-06-19T17:35:04.979Z,99726.52
2023-06-19T17:37:32.445Z,99731.15
2023-06-19T17:39:59.457Z,99733.48
2023-06-19T17:42:26.565Z,99728.70
2023-06-19T17:44:53.510Z,99732.05
2023-06-19T17:47:20.556Z,99734.48
2023-06-19T17:49:48.932Z,99727.77
2023-06-19T17:52:18.011Z,99731.05
2023-06-19T17:54:51.652Z,99729.50
2023-06-19T17:57:18.688Z,99733.27
2023-06-19T17:59:47.586Z,99728.67
2023-06-19T18:02:14.831Z,99731.23
2023-06-19T18:04:41.802Z,99735.87
2023-06-19T18:07:10.315Z,99742.95
2023-06-19T18:09:37.304Z,99743.32
2023-06-19T18:12:04.677Z,99745.42
2023-06-19T18:14:31.969Z,99746.63
2023-06-19T18:17:02.515Z,99744.61
2023-06-19T18:19:29.824Z,99742.96
2023-06-19T18:21:56.898Z,99742.95
2023-06-19T18:24:23.962Z,99748.15
2023-06-19T18:26:50.958Z,99752.48
2023-06-19T18:29:17.902Z,99756.65
2023-06-19T18:31:44.999Z,99761.65
2023-06-19T18:34:12.013Z,99756.22
2023-06-19T18:36:39.086Z,99754.95
2023-06-19T18:39:06.017Z,99751.23
2023-06-19T18:41:34.217Z,99752.95
2023-06-19T18:44:01.507Z,99746.16
2023-06-19T18:46:28.462Z,99751.33
2023-06-19T18:48:55.432Z,99751.54
2023-06-19T18:51:22.411Z,99758.69
2023-06-19T18:53:49.879Z,99753.77
2023-06-19T18:56:18.966Z,99749.10
2023-06-19T18:58:46.495Z,99748.62
2023-06-19T19:01:14.196Z,99746.61
2023-06-19T19:03:43.347Z,99741.23
2023-06-19T19:06:10.352Z,99736.84
2023-06-19T19:08:37.855Z,99737.58
2023-06-19T19:11:05.067Z,99738.24
2023-06-19T19:13:32.061Z,99740.81
2023-06-19T19:15:59.086Z,99739.13
2023-06-19T19:18:26.248Z,99733.21
2023-06-19T19:20:53.211Z,99731.24
2023-06-19T19:23:20.295Z,99730.63
2023-06-19T19:25:47.454Z,99729.38
2023-06-19T19:28:15.308Z,99731.08
2023-06-19T19:30:42.890Z,99727.95
2023-06-19T19:33:10.218Z,99724.71
2023-06-19T19:35:37.242Z,99726.31
2023-06-19T19:38:04.439Z,99732.34
2023-06-19T19:40:31.616Z,99734.33
2023-06-19T19:42:58.774Z,99732.98
2023-06-19T19:45:25.886Z,99733.73
2023-06-19T19:47:52.904Z,99737.46
2023-06-19T19:50:20.192Z,99739.49
2023-06-19T19:52:47.098Z,99741.39
2023-06-19T19:55:16.869Z,99737.92
2023-06-19T19:57:44.243Z,99736.62
2023-06-19T20:00:11.955Z,99729.09
2023-06-19T20:02:39.173Z,99732.27
2023-06-19T20:05:06.525Z,99732.27
2023-06-19T20:07:33.461Z,99731.90
2023-06-19T20:10:01.617Z,99726.73
2023-06-19T20:12:28.663Z,99724.73
2023-06-19T20:14:55.648Z,99728.83
2023-06-19T20:17:24.320Z,99722.77
2023-06-19T20:19:53.450Z,99717.44
2023-06-19T20:22:20.435Z,99721.96
2023-06-19T20:24:47.517Z,99726.67
2023-06-19T20:27:17.127Z,99730.75
2023-06-19T20:29:44.072Z,99732.86
2023-06-19T20:32:11.109Z,99732.37
2023-06-19T20:34:38.544Z,99728.77
2023-06-19T20:37:05.909Z,99727.95
2023-06-19T20:39:34.611Z,99723.08
2023-06-19T20:42:03.285Z,99725.81
2023-06-19T20:44:31.021Z,99728.92
2023-06-19T20:46:59.933Z,99729.95
2023-06-19T20:49:28.625Z,99725.80
2023-06-19T20:51:55.590Z,99723.81
2023-06-19T20:54:22.643Z,99717.89
2023-06-19T20:56:50.049Z,99716.73
2023-06-19T20:59:16.992Z,99717.33
2023-06-19T21:01:44.023Z,99723.98
2023-06-19T21:04:11.200Z,99722.09
2023-06-19T21:06:38.639Z,99726.88
2023-06-19T21:09:07.604Z,99729.18
2023-06-19T21:11:35.219Z,99730.89
2023-06-19T21:14:02.122Z,99731.75
2023-06-19T21:16:29.128Z,99733.57
2023-06-19T21:18:56.024Z,99734.88
2023-06-19T21:21:22.988Z,99735.30
2023-06-19T21:23:49.893Z,99734.88
2023-06-19T21:26:17.278Z,99736.89
2023-06-19T21:28:44.380Z,99736.08
2023-06-19T21:31:11.433Z,99736.20
2023-06-19T21:33:38.570Z,99733.34
2023-06-19T21:36:06.000Z,99733.30
2023-06-19T21:38:34.582Z,99731.77
2023-06-19T21:41:04.929Z,99733.91
2023-06-19T21:43:32.430Z,99733.77
2023-06-19T21:45:59.693Z,99731.04
2023-06-19T21:48:27.096Z,99732.35
2023-06-19T21:50:54.204Z,99734.79
2023-06-19T21:53:21.125Z,99732.95
2023-06-19T21:55:47.982Z,99733.05
2023-06-19T21:58:14.948Z,99737.09
2023-06-19T22:00:41.888Z,99736.05
2023-06-19T22:03:08.962Z,99739.44
2023-06-19T22:05:36.352Z,99738.38
2023-06-19T22:08:03.446Z,99738.84
2023-06-19T22:10:30.599Z,99738.94
2023-06-19T22:12:57.948Z,99734.04
2023-06-19T22:15:24.954Z,99735.03
2023-06-19T22:17:52.027Z,99730.94
2023-06-19T22:20:19.749Z,99730.62
2023-06-19T22:22:47.365Z,99727.80
2023-06-19T22:25:14.858Z,99724.42
2023-06-19T22:27:45.076Z,99721.88
2023-06-19T22:30:13.342Z,99720.58
2023-06-19T22:32:40.380Z,99720.27
2023-06-19T22:35:07.710Z,99721.00
2023-06-19T22:37:35.752Z,99721.02
2023-06-19T22:40:04.731Z,99716.41
2023-06-19T22:42:32.445Z,99719.01
2023-06-19T22:44:59.321Z,99723.70
2023-06-19T22:47:26.256Z,99724.91
2023-06-19T22:49:53.174Z,99724.17
2023-06-19T22:52:20.767Z,99724.83
2023-06-19T22:54:47.849Z,99726.68
2023-06-19T22:57:14.888Z,99724.05
2023-06-19T22:59:41.819Z,99726.52
2023-06-19T23:02:08.712Z,99731.50
2023-06-19T23:04:35.757Z,99733.98
2023-06-19T23:07:03.300Z,99729.95
2023-06-19T23:09:33.669Z,99729.70
2023-06-19T23:12:02.269Z,99735.84
2023-06-19T23:14:29.646Z,99736.10
2023-06-19T23:16:57.414Z,99731.61
2023-06-19T23:19:25.428Z,99733.27
2023-06-19T23:21:52.526Z,99732.84
2023-06-19T23:24:19.557Z,99732.79
2023-06-19T23:26:50.082Z,99732.99
2023-06-19T23:29:16.970Z,99733.27
2023-06-19T23:31:43.855Z,99735.46
2023-06-19T23:34:10.864Z,99739.12
2023-06-19T23:36:37.944Z,99736.70
2023-06-19T23:39:04.797Z,99735.77
2023-06-19T23:41:32.311Z,99732.98
2023-06-19T23:43:59.276Z,99732.22
2023-06-19T23:46:26.261Z,99735.80
2023-06-19T23:48:53.374Z,99737.80
2023-06-19T23:51:20.642Z,99732.07
2023-06-19T23:53:47.802Z,99735.42
2023-06-19T23:56:14.747Z,99734.24
2023-06-19T23:58:42.176Z,99734.42
